createdAt,value
2019-05-15T00:04:12.927Z,1.80
2019-05-15T00:09:18.871Z,1.57
2019-05-15T00:14:21.547Z,1.30
2019-05-15T00:19:24.987Z,1.37
2019-05-15T00:24:28.937Z,2.07
2019-05-15T00:29:32.511Z,1.80
2019-05-15T00:34:37.861Z,1.87
2019-05-15T00:39:41.102Z,2.00
2019-05-15T00:44:44.544Z,1.93
2019-05-15T00:49:48.808Z,1.77
2019-05-15T00:54:52.440Z,1.40
2019-05-15T00:59:55.825Z,1.67
2019-05-15T01:04:59.254Z,1.87
2019-05-15T01:10:03.037Z,2.17
2019-05-15T01:15:09.516Z,2.00
2019-05-15T01:20:13.336Z,1.97
2019-05-15T01:25:18.645Z,2.37
2019-05-15T01:30:22.134Z,1.93
2019-05-15T01:35:25.567Z,1.93
2019-05-15T01:40:29.061Z,1.97
2019-05-15T01:45:32.477Z,1.50
2019-05-15T01:50:38.397Z,1.60
2019-05-15T01:55:41.063Z,2.03
2019-05-15T02:00:44.480Z,2.20
2019-05-15T02:05:48.580Z,1.97
2019-05-15T02:10:52.012Z,1.90
2019-05-15T02:15:55.412Z,2.20
2019-05-15T02:20:59.788Z,2.50
2019-05-15T02:26:03.319Z,2.80
2019-05-15T02:31:09.969Z,1.90
2019-05-15T02:36:11.915Z,1.87
2019-05-15T02:41:15.322Z,1.70
2019-05-15T02:46:19.615Z,1.70
2019-05-15T02:51:23.241Z,1.63
2019-05-15T02:56:29.356Z,2.27
2019-05-15T03:01:31.902Z,2.43
2019-05-15T03:06:38.634Z,2.63
2019-05-15T03:11:41.271Z,2.10
2019-05-15T03:16:44.730Z,2.20
2019-05-15T03:21:49.630Z,2.10
2019-05-15T03:26:53.325Z,2.40
2019-05-15T03:32:13.529Z,3.23
2019-05-15T03:37:04.188Z,2.80
2019-05-15T03:42:09.583Z,2.23
2019-05-15T03:47:13.291Z,2.33
2019-05-15T03:52:19.047Z,2.07
2019-05-15T03:57:23.183Z,2.87
2019-05-15T04:02:28.778Z,2.57
2019-05-15T04:07:32.494Z,3.27
2019-05-15T04:12:35.898Z,3.00
2019-05-15T04:17:40.348Z,2.37
2019-05-15T04:22:44.013Z,2.30
2019-05-15T04:27:49.604Z,3.33
2019-05-15T04:32:53.027Z,3.03
2019-05-15T04:37:59.420Z,3.20
2019-05-15T04:43:01.702Z,3.47
2019-05-15T04:48:05.363Z,2.87
2019-05-15T04:53:10.538Z,2.70
2019-05-15T04:58:14.060Z,2.90
2019-05-15T05:03:19.852Z,3.07
2019-05-15T05:08:22.754Z,2.97
2019-05-15T05:13:28.642Z,3.23
2019-05-15T05:18:31.394Z,2.50
2019-05-15T05:23:34.811Z,2.53
2019-05-15T05:28:38.225Z,8.13
2019-05-15T05:33:41.672Z,11.20
2019-05-15T05:38:45.090Z,7.73
2019-05-15T05:43:48.802Z,6.20
2019-05-15T05:48:52.331Z,5.30
2019-05-15T05:53:55.837Z,5.33
2019-05-15T05:58:59.243Z,2.73
2019-05-15T06:04:02.655Z,2.60
2019-05-15T06:09:09.039Z,1.50
2019-05-15T06:14:12.023Z,2.07
2019-05-15T06:19:15.450Z,2.43
2019-05-15T06:24:18.871Z,2.10
2019-05-15T06:29:22.286Z,2.10
2019-05-15T06:34:25.718Z,1.67
2019-05-15T06:39:29.216Z,1.77
2019-05-15T06:44:32.773Z,1.43
2019-05-15T06:49:37.823Z,1.30
2019-05-15T06:54:41.410Z,0.83
2019-05-15T06:59:44.822Z,1.77
2019-05-15T07:04:48.888Z,1.40
2019-05-15T07:09:52.722Z,1.20
2019-05-15T07:14:58.217Z,1.30
2019-05-15T07:20:01.371Z,1.27
2019-05-15T07:25:08.886Z,1.13
2019-05-15T07:30:13.152Z,1.53
2019-05-15T07:35:19.157Z,1.00
2019-05-15T07:40:23.348Z,1.50
2019-05-15T07:45:28.279Z,0.90
2019-05-15T07:50:31.860Z,1.23
2019-05-15T07:55:35.299Z,1.33
2019-05-15T08:00:39.635Z,1.30
2019-05-15T08:05:58.050Z,1.17
2019-05-15T08:10:49.225Z,1.30
2019-05-15T08:15:52.681Z,1.50
2019-05-15T08:20:58.632Z,1.67
2019-05-15T08:26:01.261Z,1.00
2019-05-15T08:31:06.707Z,1.53
2019-05-15T08:36:09.923Z,1.10
2019-05-15T08:41:15.566Z,1.10
2019-05-15T08:46:18.812Z,1.13
2019-05-15T08:51:22.334Z,1.00
2019-05-15T08:56:28.668Z,1.10
2019-05-15T09:01:30.910Z,1.30
2019-05-15T09:06:34.328Z,1.23
2019-05-15T09:11:39.180Z,1.10
2019-05-15T09:16:42.896Z,1.10
2019-05-15T09:21:48.811Z,1.30
2019-05-15T09:26:51.602Z,1.10
2019-05-15T09:31:55.029Z,1.43
2019-05-15T09:36:59.938Z,1.23
2019-05-15T09:42:03.603Z,0.77
2019-05-15T09:47:09.151Z,1.10
2019-05-15T09:52:12.147Z,1.30
2019-05-15T09:57:15.579Z,0.93
2019-05-15T10:02:19.241Z,0.90
2019-05-15T10:07:22.709Z,1.10
2019-05-15T10:12:31.347Z,1.23
2019-05-15T10:17:31.299Z,0.90
2019-05-15T10:22:34.724Z,1.17
2019-05-15T10:27:39.824Z,2.30
2019-05-15T10:32:43.489Z,1.93
2019-05-15T10:37:48.825Z,1.13
2019-05-15T10:42:52.103Z,1.20
2019-05-15T10:47:58.404Z,1.37
2019-05-15T10:53:00.686Z,1.70
2019-05-15T10:58:04.230Z,0.70
2019-05-15T11:03:08.902Z,1.00
2019-05-15T11:08:12.459Z,0.80
2019-05-15T11:13:18.510Z,1.10
2019-05-15T11:18:21.083Z,0.80
2019-05-15T11:23:24.523Z,1.10
2019-05-15T11:28:31.726Z,1.00
2019-05-15T11:33:33.089Z,1.00
2019-05-15T11:38:38.149Z,1.33
2019-05-15T11:43:41.753Z,1.07
2019-05-15T11:48:45.169Z,1.30
2019-05-15T11:53:49.191Z,0.90
2019-05-15T11:58:52.791Z,1.33
2019-05-15T12:03:58.575Z,1.20
2019-05-15T12:09:01.412Z,1.83
2019-05-15T12:14:04.916Z,1.13
2019-05-15T12:19:09.516Z,1.47
2019-05-15T12:24:13.768Z,1.63
2019-05-15T12:29:17.291Z,1.60
2019-05-15T12:34:20.720Z,1.63
2019-05-15T12:39:29.458Z,1.20
2019-05-15T12:59:45.069Z,1.30
2019-05-15T13:04:48.563Z,1.20
2019-05-15T13:09:52.076Z,1.47
2019-05-15T13:14:55.491Z,1.50
2019-05-15T13:19:58.907Z,1.43
2019-05-15T13:25:02.529Z,1.17
2019-05-15T13:30:11.996Z,1.73
2019-05-15T13:35:15.625Z,1.77
2019-05-15T13:40:33.824Z,1.83
2019-05-15T13:45:24.734Z,1.10
2019-05-15T13:50:28.620Z,1.13
2019-05-15T13:55:36.803Z,1.13
2019-05-15T14:00:39.133Z,1.13
2019-05-15T14:05:45.090Z,1.13
2019-05-15T14:10:48.755Z,1.67
2019-05-15T14:15:52.389Z,1.97
2019-05-15T14:20:58.206Z,1.80
2019-05-15T14:26:15.079Z,1.53
2019-05-15T14:31:09.503Z,2.03
2019-05-15T14:36:11.273Z,1.00
2019-05-15T14:41:14.703Z,1.07
2019-05-15T14:46:18.650Z,1.20
2019-05-15T14:51:22.135Z,0.90
2019-05-15T14:56:25.584Z,1.37
2019-05-15T15:01:29.041Z,1.07
2019-05-15T15:06:32.474Z,1.43
2019-05-15T15:11:38.368Z,1.03
2019-05-15T15:16:41.121Z,1.17
2019-05-15T15:21:44.539Z,1.40
2019-05-15T15:26:49.323Z,1.30
2019-05-15T15:31:52.877Z,1.30
2019-05-15T15:36:57.937Z,1.20
2019-05-15T15:42:01.503Z,1.03
2019-05-15T15:47:05.201Z,3.30
2019-05-15T15:52:08.942Z,3.03
2019-05-15T15:57:12.396Z,1.27
2019-05-15T16:02:15.785Z,1.30
2019-05-15T16:07:19.214Z,1.10
2019-05-15T16:12:22.638Z,1.20
2019-05-15T16:17:28.477Z,1.80
2019-05-15T16:22:31.213Z,1.33
2019-05-15T16:27:34.628Z,1.87
2019-05-15T16:32:41.405Z,1.73
2019-05-15T16:37:43.353Z,1.37
2019-05-15T16:42:48.861Z,1.60
2019-05-15T16:47:52.212Z,2.07
2019-05-15T16:52:55.644Z,1.70
2019-05-15T16:57:59.179Z,1.90
2019-05-15T17:03:10.093Z,1.80
2019-05-15T17:08:09.154Z,1.03
2019-05-15T17:13:12.725Z,1.00
2019-05-15T17:18:18.114Z,1.33
2019-05-15T17:23:21.277Z,1.57
2019-05-15T17:28:24.707Z,2.43
2019-05-15T17:33:28.875Z,6.20
2019-05-15T17:38:33.436Z,1.27
2019-05-15T17:43:37.942Z,0.93
2019-05-15T17:48:41.431Z,1.23
2019-05-15T17:53:44.867Z,0.87
2019-05-15T17:58:48.836Z,1.40
2019-05-15T18:03:52.379Z,1.10
2019-05-15T18:08:55.980Z,0.97
2019-05-15T18:14:00.186Z,0.90
2019-05-15T18:19:03.608Z,1.20
2019-05-15T18:24:09.313Z,2.00
2019-05-15T18:29:12.933Z,2.37
2019-05-15T18:34:18.616Z,1.70
2019-05-15T18:39:21.776Z,1.67
2019-05-15T18:44:25.197Z,1.93
2019-05-15T18:49:28.646Z,1.30
2019-05-15T18:54:32.075Z,7.83
2019-05-15T18:59:35.496Z,2.90
2019-05-15T19:04:38.919Z,2.60
2019-05-15T19:09:42.376Z,2.60
2019-05-15T19:14:46.006Z,1.97
2019-05-15T19:19:49.418Z,1.83
2019-05-15T19:24:52.838Z,1.87
2019-05-15T19:29:56.285Z,1.67
2019-05-15T19:34:59.707Z,2.53
2019-05-15T19:40:03.914Z,8.20
2019-05-15T19:45:09.251Z,3.20
2019-05-15T19:50:13.927Z,2.30
2019-05-15T19:55:19.524Z,2.30
2019-05-15T20:00:23.713Z,2.87
2019-05-15T20:05:29.004Z,2.67
2019-05-15T20:10:32.215Z,3.33
2019-05-15T20:15:37.814Z,3.30
2019-05-15T20:20:40.780Z,3.17
2019-05-15T20:25:44.288Z,2.80
2019-05-15T20:30:48.185Z,1.77
2019-05-15T20:35:51.784Z,4.37
2019-05-15T20:40:55.219Z,2.30
2019-05-15T20:45:58.642Z,2.20
2019-05-15T20:51:02.079Z,2.10
2019-05-15T20:56:05.503Z,2.17
2019-05-15T21:01:09.301Z,2.47
2019-05-15T21:06:12.751Z,2.47
2019-05-15T21:11:18.049Z,1.80
2019-05-15T21:16:22.990Z,2.00
2019-05-15T21:21:28.255Z,2.10
2019-05-15T21:26:31.529Z,1.13
2019-05-15T21:31:35.000Z,1.63
2019-05-15T21:36:39.456Z,1.60
2019-05-15T21:41:43.026Z,1.50
2019-05-15T21:46:48.124Z,1.23
2019-05-15T21:51:51.647Z,1.20
2019-05-15T21:57:06.794Z,1.30
2019-05-15T22:02:00.564Z,0.90
2019-05-15T22:07:04.061Z,1.27
2019-05-15T22:12:07.684Z,1.30
2019-05-15T22:17:11.107Z,1.50
2019-05-15T22:22:14.591Z,1.13
2019-05-15T22:27:21.044Z,1.37
2019-05-15T22:32:23.190Z,0.90
2019-05-15T22:37:26.598Z,1.20
2019-05-15T22:42:31.814Z,1.73
2019-05-15T22:47:35.416Z,1.87
2019-05-15T22:52:39.164Z,1.37
2019-05-15T22:57:42.550Z,1.63
2019-05-15T23:02:48.899Z,1.73
2019-05-15T23:07:51.843Z,1.33
2019-05-15T23:12:55.267Z,1.97
2019-05-15T23:17:58.698Z,1.60
2019-05-15T23:23:02.137Z,1.67
2019-05-15T23:28:05.657Z,1.27
2019-05-15T23:33:09.075Z,1.57
2019-05-15T23:38:12.497Z,0.90
2019-05-15T23:43:15.944Z,1.20
2019-05-15T23:48:19.374Z,1.00
2019-05-15T23:53:22.823Z,1.30
2019-05-15T23:58:28.886Z,0.87
